Time;durP1;ratioP1;P1;durP2;ratioP2;P2;SDS_P1;SDS_P2;PMS_P1;PMS_P2;Temp;Humidity;BMP_temperature;BMP_pressure;BME280_temperature;BME280_humidity;BME280_pressure;Samples;Min_cycle;Max_cycle;Signal;HPM_P1;HPM_P2
2024/01/12 00:13:23;;;;;;;78.90;27.30;;;;;;;-1.79;85.70;101378.58;682117;1263;139131;-79
2024/01/12 00:28:27;;;;;;;78.30;26.00;;;;;;;-1.61;84.54;101392.14;682278;1259;138558;-79
2024/01/12 00:43:31;;;;;;;47.30;16.50;;;;;;;-1.65;81.68;101400.61;681988;1260;139268;-79
2024/01/12 00:58:35;;;;;;;28.00;8.00;;;;;;;-2.08;80.94;101420.09;682279;1261;138699;-79
2024/01/12 01:13:39;;;;;;;28.10;12.40;;;;;;;-2.24;81.41;101429.95;682156;1259;139128;-79
2024/01/12 01:28:43;;;;;;;73.80;27.10;;;;;;;-2.14;81.40;101427.22;682285;1259;139762;-79
2024/01/12 01:43:47;;;;;;;;;;;;;;;-2.33;80.92;101422.22;682018;1259;138875;-79
2024/01/12 01:58:52;;;;;;;42.00;9.40;;;;;;;-2.84;80.71;101416.98;682193;1259;124374;-79
2024/01/12 02:13:58;;;;;;;58.50;16.60;;;;;;;-3.12;80.88;101411.71;682254;1265;140094;-79
2024/01/12 02:29:03;;;;;;;59.90;16.50;;;;;;;-2.99;81.13;101418.91;682211;1272;139224;-79
2024/01/12 02:44:07;;;;;;;81.70;21.20;;;;;;;-3.05;80.75;101408.20;682287;1260;139083;-79
2024/01/12 02:59:11;;;;;;;179.60;33.10;;;;;;;-3.25;80.30;101393.75;682379;1263;140259;-79
2024/01/12 03:14:19;;;;;;;36.60;12.00;;;;;;;-3.23;80.68;101400.23;682225;1259;139201;-79
2024/01/12 03:29:24;;;;;;;44.80;15.80;;;;;;;-3.02;81.09;101383.70;682080;1262;139182;-79
2024/01/12 03:44:28;;;;;;;27.40;10.60;;;;;;;-2.96;80.93;101371.30;682249;1259;139252;-79
2024/01/12 03:59:33;;;;;;;26.10;13.00;;;;;;;-3.05;81.28;101371.75;682201;1263;138981;-79
2024/01/12 04:14:45;;;;;;;43.80;18.90;;;;;;;-3.38;81.30;101379.88;682244;1259;139174;-79
2024/01/12 04:29:50;;;;;;;110.60;48.80;;;;;;;-3.18;82.08;101370.21;682132;1263;139137;-79
2024/01/12 04:44:53;;;;;;;;;;;;;;;-2.65;82.42;101372.88;682313;1263;140116;-79
2024/01/12 05:00:00;;;;;;;45.30;19.70;;;;;;;-2.59;82.27;101372.08;682221;1263;125235;-79
2024/01/12 05:15:07;;;;;;;47.70;20.40;;;;;;;-2.58;82.51;101356.14;682153;1262;138645;-79
2024/01/12 05:30:13;;;;;;;38.80;15.50;;;;;;;-2.42;82.43;101350.40;682325;1263;140384;-78
2024/01/12 05:45:18;;;;;;;80.40;28.00;;;;;;;-2.44;82.28;101330.90;682200;1259;139117;-79
2024/01/12 06:00:21;;;;;;;27.50;11.40;;;;;;;-2.17;82.51;101331.11;682121;1264;140791;-79
2024/01/12 06:15:25;;;;;;;53.10;21.20;;;;;;;-1.95;82.05;101325.23;682213;1260;138670;-79
2024/01/12 06:30:28;;;;;;;28.30;9.70;;;;;;;-1.98;81.45;101321.32;682063;1263;138336;-79
2024/01/12 06:45:32;;;;;;;79.50;28.90;;;;;;;-2.01;80.65;101311.42;681968;1265;139529;-79
2024/01/12 07:00:36;;;;;;;196.30;55.90;;;;;;;-1.90;81.02;101301.63;682220;1263;139317;-78
2024/01/12 07:15:40;;;;;;;37.50;15.50;;;;;;;-1.88;80.87;101297.65;682136;1265;139010;-78
2024/01/12 07:30:45;;;;;;;52.30;19.50;;;;;;;-1.72;80.17;101274.48;681902;1264;139033;-80
2024/01/12 07:45:51;;;;;;;96.90;26.90;;;;;;;-1.31;78.64;101252.33;682085;1264;138901;-80
2024/01/12 08:00:55;;;;;;;54.10;19.60;;;;;;;-1.00;77.08;101256.40;682115;1265;138800;-80
2024/01/12 08:16:01;;;;;;;61.50;23.30;;;;;;;-0.79;76.31;101246.10;682109;1262;139814;-80
2024/01/12 08:31:05;;;;;;;118.80;37.10;;;;;;;-0.59;76.09;101235.27;681881;1263;139124;-82
2024/01/12 08:46:10;;;;;;;64.60;21.80;;;;;;;-0.37;75.80;101218.20;682106;1265;138848;-82
2024/01/12 09:01:15;;;;;;;;;;;;;;;-0.05;76.83;101211.60;682085;1265;138744;-81
2024/01/12 09:16:19;;;;;;;57.30;20.80;;;;;;;0.31;77.55;101198.35;682236;1266;125659;-81
2024/01/12 09:31:23;;;;;;;43.60;19.60;;;;;;;0.46;78.68;101167.23;681986;1265;139357;-81
2024/01/12 09:46:30;;;;;;;34.20;14.80;;;;;;;0.73;79.85;101120.23;682295;1263;137917;-81
2024/01/12 10:01:34;;;;;;;76.40;30.50;;;;;;;0.99;80.46;101095.56;682141;1263;138822;-80
2024/01/12 10:16:39;;;;;;;98.80;31.30;;;;;;;1.36;81.41;101056.86;682116;1266;138628;-80
2024/01/12 10:31:45;;;;;;;54.90;34.40;;;;;;;1.52;81.24;101036.09;682122;1266;139348;-78
2024/01/12 10:46:54;;;;;;;45.10;15.50;;;;;;;1.50;82.82;100995.80;682144;1265;139325;-80
2024/01/12 11:02:03;;;;;;;34.40;12.80;;;;;;;1.79;84.61;100940.35;682045;1263;140572;-81
2024/01/12 11:17:08;;;;;;;45.50;14.50;;;;;;;1.74;85.01;100940.39;682089;1263;140595;-80
2024/01/12 11:32:15;;;;;;;21.80;9.70;;;;;;;1.64;86.33;100908.34;682116;1263;138059;-78
2024/01/12 11:47:20;;;;;;;18.40;7.00;;;;;;;2.04;86.70;100863.08;682069;1265;139095;-81
2024/01/12 12:02:25;;;;;;;24.60;10.90;;;;;;;2.33;86.69;100818.97;682197;1272;138538;-80
2024/01/12 12:17:29;;;;;;;18.90;7.80;;;;;;;2.51;87.31;100784.30;682084;1264;138688;-81
2024/01/12 12:32:33;;;;;;;28.20;11.70;;;;;;;2.74;86.97;100763.91;682149;1262;137968;-80
2024/01/12 12:47:37;;;;;;;65.90;24.40;;;;;;;3.12;86.87;100746.56;682076;1260;139726;-81
2024/01/12 13:02:44;;;;;;;61.80;18.00;;;;;;;3.39;86.59;100735.15;682057;1266;138452;-79
2024/01/12 13:17:48;;;;;;;83.60;27.40;;;;;;;3.36;86.73;100709.19;682129;1260;142644;-79
2024/01/12 13:32:51;;;;;;;46.90;14.60;;;;;;;3.66;86.92;100699.89;682320;1261;138590;-79
2024/01/12 13:47:59;;;;;;;17.60;8.20;;;;;;;3.73;86.93;100679.44;682137;1261;140859;-79
2024/01/12 14:03:05;;;;;;;36.80;14.50;;;;;;;3.90;87.21;100673.17;682146;1263;139283;-78
2024/01/12 14:18:10;;;;;;;32.60;12.40;;;;;;;3.98;87.45;100656.83;681958;1262;138454;-78
2024/01/12 14:33:16;;;;;;;25.20;9.40;;;;;;;4.02;87.88;100643.77;682224;1264;139402;-79
2024/01/12 14:48:21;;;;;;;17.70;8.00;;;;;;;4.21;87.58;100625.80;681874;1260;139417;-79
2024/01/12 15:03:25;;;;;;;17.20;8.00;;;;;;;3.83;87.95;100609.02;682166;1261;139184;-79
2024/01/12 15:18:30;;;;;;;14.80;8.50;;;;;;;3.78;88.73;100595.80;681944;1260;139084;-79
2024/01/12 15:33:36;;;;;;;14.40;7.90;;;;;;;3.60;89.28;100591.58;682177;1263;139585;-79
2024/01/12 15:48:41;;;;;;;37.00;16.70;;;;;;;3.45;90.07;100581.33;681986;1260;139841;-79
2024/01/12 16:03:45;;;;;;;56.70;22.40;;;;;;;3.33;90.78;100563.77;682096;1261;138205;-79
2024/01/12 16:18:50;;;;;;;38.40;17.00;;;;;;;3.31;91.33;100552.31;681985;1262;139847;-79
2024/01/12 16:34:06;;;;;;;28.00;13.20;;;;;;;3.38;91.63;100551.08;682218;1259;140167;-80
2024/01/12 16:49:10;;;;;;;36.90;18.90;;;;;;;3.25;92.36;100534.15;681977;1259;138288;-79
2024/01/12 17:04:16;;;;;;;34.20;15.20;;;;;;;3.16;92.86;100524.05;682280;1261;139432;-79
2024/01/12 17:19:25;;;;;;;42.00;20.20;;;;;;;2.96;93.31;100508.87;682060;1259;139172;-80
2024/01/12 17:34:33;;;;;;;45.10;21.20;;;;;;;2.96;93.54;100493.29;682284;1260;139319;-80
2024/01/12 17:49:38;;;;;;;31.90;13.20;;;;;;;2.86;93.33;100484.16;682129;1259;141136;-80
2024/01/12 18:04:43;;;;;;;29.00;13.20;;;;;;;2.90;93.02;100491.91;682116;1262;140600;-81
2024/01/12 18:19:50;;;;;;;38.20;18.80;;;;;;;2.82;92.67;100479.71;682173;1259;140816;-79
2024/01/12 18:34:54;;;;;;;53.10;22.00;;;;;;;2.68;92.53;100465.23;682133;1263;139943;-80
2024/01/12 18:50:01;;;;;;;44.10;17.00;;;;;;;2.64;92.40;100466.11;682074;1259;139928;-80
2024/01/12 19:05:07;;;;;;;44.10;16.90;;;;;;;2.53;92.66;100436.27;682074;1263;138812;-81
2024/01/12 19:20:11;;;;;;;37.10;14.90;;;;;;;2.59;92.85;100423.21;682211;1265;139608;-80
2024/01/12 19:35:16;;;;;;;55.50;19.40;;;;;;;2.61;92.74;100410.35;681906;1259;264479;-80
2024/01/12 19:50:19;;;;;;;65.00;20.60;;;;;;;2.60;93.62;100406.74;681981;1264;138627;-79
2024/01/12 20:05:24;;;;;;;55.30;17.90;;;;;;;2.67;93.85;100410.55;681795;1260;139757;-80
2024/01/12 20:20:29;;;;;;;42.20;17.60;;;;;;;2.64;94.41;100408.08;682005;1264;139411;-80
2024/01/12 20:35:34;;;;;;;41.80;14.90;;;;;;;2.78;95.09;100413.03;681914;1264;139005;-80
2024/01/12 20:50:40;;;;;;;31.00;11.40;;;;;;;2.85;95.42;100416.31;682192;1263;139636;-80
2024/01/12 21:05:44;;;;;;;45.10;18.90;;;;;;;2.94;95.72;100407.03;681943;1262;140420;-81
2024/01/12 21:20:51;;;;;;;29.40;14.30;;;;;;;2.87;96.74;100392.39;682127;1264;140971;-80
2024/01/12 21:35:55;;;;;;;22.90;10.60;;;;;;;2.97;97.05;100401.36;682162;1263;139331;-80
2024/01/12 21:51:00;;;;;;;34.30;14.70;;;;;;;2.94;97.22;100388.19;682258;1260;138512;-80
2024/01/12 22:06:04;;;;;;;24.80;11.30;;;;;;;3.05;96.90;100375.34;682090;1263;140321;-80
2024/01/12 22:21:08;;;;;;;22.20;11.30;;;;;;;3.17;96.86;100352.02;682177;1263;139764;-80
2024/01/12 22:36:11;;;;;;;20.00;9.00;;;;;;;3.25;96.64;100357.14;682110;1264;139383;-80
2024/01/12 22:51:15;;;;;;;18.80;9.40;;;;;;;3.21;96.55;100350.59;682140;1265;139231;-79
2024/01/12 23:06:20;;;;;;;18.20;9.10;;;;;;;3.20;96.43;100340.13;681986;1264;138598;-80
2024/01/12 23:21:24;;;;;;;14.10;8.20;;;;;;;3.14;96.45;100337.66;682310;1265;138652;-80
2024/01/12 23:36:28;;;;;;;22.20;10.00;;;;;;;3.03;96.36;100333.79;682289;1266;139690;-79
2024/01/12 23:51:32;;;;;;;20.40;8.80;;;;;;;3.06;96.25;100327.08;682274;1269;140088;-79
